createdAt,value
2023-03-31T00:01:36.923Z,5.53
2023-03-31T00:04:05.468Z,6.10
2023-03-31T00:06:41.862Z,5.53
2023-03-31T00:09:13.686Z,6.05
2023-03-31T00:11:40.898Z,6.03
2023-03-31T00:14:09.183Z,5.80
2023-03-31T00:16:38.343Z,5.72
2023-03-31T00:19:09.764Z,5.38
2023-03-31T00:21:37.012Z,5.70
2023-03-31T00:24:07.077Z,5.40
2023-03-31T00:26:35.644Z,5.78
2023-03-31T00:29:06.206Z,5.97
2023-03-31T00:31:35.047Z,5.55
2023-03-31T00:34:02.667Z,5.80
2023-03-31T00:36:30.000Z,6.03
2023-03-31T00:39:07.328Z,5.20
2023-03-31T00:41:36.519Z,5.35
2023-03-31T00:44:28.045Z,5.38
2023-03-31T00:47:18.083Z,4.97
2023-03-31T00:49:51.714Z,5.18
2023-03-31T00:52:37.391Z,5.60
2023-03-31T00:55:13.658Z,5.30
2023-03-31T00:57:44.616Z,5.13
2023-03-31T01:00:18.340Z,4.97
2023-03-31T01:03:03.437Z,5.30
2023-03-31T01:05:36.711Z,5.35
2023-03-31T01:08:05.982Z,4.93
2023-03-31T01:10:43.174Z,5.35
2023-03-31T01:13:14.878Z,5.28
2023-03-31T01:15:43.847Z,4.80
2023-03-31T01:18:14.696Z,4.95
2023-03-31T01:21:20.028Z,5.07
2023-03-31T01:24:26.600Z,4.40
2023-03-31T01:27:13.848Z,4.70
2023-03-31T01:30:45.052Z,4.32
2023-03-31T01:33:50.715Z,4.55
2023-03-31T01:36:53.054Z,4.35
2023-03-31T01:40:01.219Z,3.78
2023-03-31T01:42:46.588Z,4.05
2023-03-31T01:45:51.652Z,4.20
2023-03-31T01:48:44.867Z,3.60
2023-03-31T01:51:29.337Z,3.75
2023-03-31T01:54:18.286Z,3.60
2023-03-31T01:57:11.405Z,3.22
2023-03-31T01:59:52.404Z,3.53
2023-03-31T02:02:37.218Z,3.47
2023-03-31T02:05:17.426Z,3.58
2023-03-31T02:07:58.627Z,3.60
2023-03-31T02:10:31.429Z,3.50
2023-03-31T02:13:02.818Z,3.47
2023-03-31T02:15:42.327Z,3.20
2023-03-31T02:18:17.172Z,3.13
2023-03-31T02:20:50.585Z,2.97
2023-03-31T02:23:26.564Z,3.00
2023-03-31T02:26:10.222Z,2.80
2023-03-31T02:28:38.838Z,2.80
2023-03-31T02:31:19.526Z,2.55
2023-03-31T02:33:48.732Z,2.63
2023-03-31T02:36:17.119Z,2.65
2023-03-31T02:38:55.708Z,2.50
2023-03-31T02:41:23.364Z,2.45
2023-03-31T02:43:50.712Z,2.38
2023-03-31T02:46:18.089Z,2.35
2023-03-31T02:49:08.491Z,2.20
2023-03-31T02:51:52.939Z,2.00
2023-03-31T02:54:57.764Z,2.00
2023-03-31T02:57:33.958Z,1.92
2023-03-31T03:00:52.916Z,1.95
2023-03-31T03:03:42.956Z,2.08
2023-03-31T03:06:53.756Z,1.88
2023-03-31T03:10:00.288Z,1.90
2023-03-31T03:12:45.068Z,1.90
2023-03-31T03:15:31.546Z,1.73
2023-03-31T03:17:59.654Z,1.73
2023-03-31T03:20:27.820Z,1.95
2023-03-31T03:22:55.417Z,1.85
2023-03-31T03:25:24.299Z,1.63
2023-03-31T03:27:53.106Z,1.77
2023-03-31T03:30:20.362Z,2.05
2023-03-31T03:32:48.031Z,2.00
2023-03-31T03:35:15.396Z,1.80
2023-03-31T03:37:43.704Z,2.03
2023-03-31T03:40:11.303Z,2.20
2023-03-31T03:42:38.707Z,1.88
2023-03-31T03:45:07.050Z,1.80
2023-03-31T03:47:36.021Z,1.85
2023-03-31T03:50:05.257Z,1.90
2023-03-31T03:52:32.835Z,1.75
2023-03-31T03:55:03.282Z,1.77
2023-03-31T03:57:30.864Z,1.73
2023-03-31T03:59:58.037Z,1.80
2023-03-31T04:02:28.025Z,1.98
2023-03-31T04:04:55.289Z,1.80
2023-03-31T04:07:22.700Z,1.80
2023-03-31T04:09:49.686Z,1.77
2023-03-31T04:12:16.991Z,1.60
2023-03-31T04:14:44.038Z,1.65
2023-03-31T04:17:15.626Z,1.45
2023-03-31T04:19:42.902Z,1.50
2023-03-31T04:22:11.723Z,1.38
2023-03-31T04:24:38.942Z,1.70
2023-03-31T04:27:10.457Z,1.58
2023-03-31T04:29:38.022Z,1.58
2023-03-31T04:32:05.898Z,1.70
2023-03-31T04:34:35.991Z,1.80
2023-03-31T04:37:03.976Z,1.70
2023-03-31T04:39:31.709Z,1.85
2023-03-31T04:42:00.901Z,1.80
2023-03-31T04:44:28.812Z,2.08
2023-03-31T04:46:56.794Z,1.90
2023-03-31T04:49:23.879Z,1.98
2023-03-31T04:51:51.301Z,2.13
2023-03-31T04:54:18.434Z,2.50
2023-03-31T04:56:46.782Z,2.40
2023-03-31T04:59:14.362Z,2.63
2023-03-31T05:01:45.537Z,2.67
2023-03-31T05:04:14.454Z,2.80
2023-03-31T05:06:41.968Z,2.92
2023-03-31T05:09:10.062Z,3.00
2023-03-31T05:11:38.330Z,3.30
2023-03-31T05:14:05.696Z,3.20
2023-03-31T05:16:33.109Z,3.20
2023-03-31T05:19:00.641Z,3.03
2023-03-31T05:21:30.426Z,2.90
2023-03-31T05:23:58.058Z,2.95
2023-03-31T05:26:26.634Z,3.20
2023-03-31T05:28:54.660Z,2.80
2023-03-31T05:31:22.596Z,3.08
2023-03-31T05:33:49.759Z,3.05
2023-03-31T05:36:18.412Z,3.33
2023-03-31T05:38:46.032Z,3.30
2023-03-31T05:41:13.463Z,3.35
2023-03-31T05:43:40.727Z,3.42
2023-03-31T05:46:08.573Z,3.25
2023-03-31T05:48:37.884Z,2.88
2023-03-31T05:51:05.955Z,3.05
2023-03-31T05:53:34.047Z,3.10
2023-03-31T05:56:06.376Z,2.80
2023-03-31T05:58:36.196Z,3.10
2023-03-31T06:01:11.268Z,2.60
2023-03-31T06:03:41.837Z,2.63
2023-03-31T06:06:14.723Z,2.60
2023-03-31T06:08:44.471Z,2.45
2023-03-31T06:11:16.330Z,2.55
2023-03-31T06:13:43.491Z,2.80
2023-03-31T06:16:13.229Z,2.95
2023-03-31T06:18:41.738Z,2.90
2023-03-31T06:21:16.859Z,3.05
2023-03-31T06:23:45.926Z,3.10
2023-03-31T06:26:17.718Z,2.67
2023-03-31T06:28:46.855Z,3.30
2023-03-31T06:31:21.269Z,2.45
2023-03-31T06:33:49.464Z,2.95
2023-03-31T06:36:20.244Z,2.78
2023-03-31T06:38:48.448Z,2.55
2023-03-31T06:41:18.705Z,2.70
2023-03-31T06:43:46.390Z,2.40
2023-03-31T06:46:14.459Z,2.35
2023-03-31T06:48:42.207Z,2.42
2023-03-31T06:51:10.329Z,2.65
2023-03-31T06:53:37.804Z,2.60
2023-03-31T06:56:06.997Z,2.83
2023-03-31T06:58:34.700Z,2.90
2023-03-31T07:01:05.957Z,2.63
2023-03-31T07:03:34.696Z,2.73
2023-03-31T07:06:03.093Z,2.20
2023-03-31T07:08:31.174Z,2.50
2023-03-31T07:11:01.158Z,2.40
2023-03-31T07:13:29.348Z,2.30
2023-03-31T07:15:57.356Z,2.20
2023-03-31T07:18:26.187Z,2.20
2023-03-31T07:20:53.887Z,2.10
2023-03-31T07:23:21.357Z,2.30
2023-03-31T07:25:49.185Z,2.08
2023-03-31T07:28:17.369Z,1.98
2023-03-31T07:30:44.837Z,1.88
2023-03-31T07:33:12.744Z,1.50
2023-03-31T07:35:41.846Z,1.60
2023-03-31T07:38:11.304Z,1.70
2023-03-31T07:40:40.077Z,1.52
2023-03-31T07:43:07.624Z,1.50
2023-03-31T07:45:35.878Z,1.70
2023-03-31T07:48:03.369Z,1.48
2023-03-31T07:50:30.916Z,1.45
2023-03-31T07:52:59.757Z,1.50
2023-03-31T07:55:27.401Z,1.40
2023-03-31T07:57:54.601Z,1.70
2023-03-31T08:00:23.302Z,1.35
2023-03-31T08:02:50.762Z,1.67
2023-03-31T08:05:21.136Z,1.80
2023-03-31T08:07:50.804Z,1.63
2023-03-31T08:10:26.116Z,1.70
2023-03-31T08:12:56.027Z,1.90
2023-03-31T08:15:23.797Z,1.55
2023-03-31T08:17:51.197Z,1.50
2023-03-31T08:20:18.659Z,1.52
2023-03-31T08:22:46.069Z,1.40
2023-03-31T08:25:13.390Z,1.65
2023-03-31T08:27:41.176Z,1.58
2023-03-31T08:30:11.530Z,1.67
2023-03-31T08:32:39.186Z,1.33
2023-03-31T08:35:08.718Z,1.35
2023-03-31T08:37:37.522Z,1.42
2023-03-31T08:40:09.556Z,1.40
2023-03-31T08:42:43.479Z,1.58
2023-03-31T08:45:32.074Z,1.30
2023-03-31T08:48:29.223Z,1.50
2023-03-31T08:51:25.844Z,1.30
2023-03-31T08:54:05.649Z,1.15
2023-03-31T08:56:39.171Z,1.42
2023-03-31T08:59:20.117Z,1.30
2023-03-31T09:02:13.487Z,1.40
2023-03-31T09:05:15.448Z,1.23
2023-03-31T09:08:09.735Z,1.37
2023-03-31T09:11:04.615Z,1.33
2023-03-31T09:14:13.993Z,1.30
2023-03-31T09:16:59.481Z,1.20
2023-03-31T09:19:54.775Z,1.10
2023-03-31T09:22:37.295Z,1.30
2023-03-31T09:25:25.271Z,1.30
2023-03-31T09:27:59.208Z,1.13
2023-03-31T09:30:33.532Z,1.40
2023-03-31T09:33:32.135Z,1.20
2023-03-31T09:36:01.723Z,1.17
2023-03-31T09:38:31.033Z,1.13
2023-03-31T09:41:02.424Z,1.00
2023-03-31T09:43:35.107Z,1.10
2023-03-31T09:46:12.694Z,1.20
2023-03-31T09:48:50.654Z,1.05
2023-03-31T09:51:30.477Z,1.00
2023-03-31T09:54:10.406Z,0.98
2023-03-31T09:56:43.501Z,1.08
2023-03-31T09:59:20.569Z,1.00
2023-03-31T10:01:53.332Z,1.05
2023-03-31T10:04:28.735Z,0.80
2023-03-31T10:06:57.141Z,1.08
2023-03-31T10:09:31.721Z,0.98
2023-03-31T10:12:14.957Z,0.82
2023-03-31T10:14:50.520Z,1.10
2023-03-31T10:17:28.062Z,1.00
2023-03-31T10:19:59.815Z,1.00
2023-03-31T10:22:32.428Z,1.13
2023-03-31T10:27:57.879Z,1.70
2023-03-31T10:30:35.272Z,1.73
2023-03-31T10:33:23.066Z,1.55
2023-03-31T10:36:00.358Z,1.40
2023-03-31T10:38:37.346Z,1.20
2023-03-31T10:41:04.931Z,1.40
2023-03-31T10:43:50.017Z,1.52
2023-03-31T10:46:17.925Z,1.27
2023-03-31T10:48:46.416Z,1.33
2023-03-31T10:51:21.800Z,1.23
2023-03-31T10:53:52.918Z,1.20
2023-03-31T10:56:35.045Z,1.00
2023-03-31T11:02:29.936Z,1.42
2023-03-31T11:05:28.766Z,1.40
2023-03-31T11:08:31.311Z,1.30
2023-03-31T11:11:46.496Z,1.00
2023-03-31T11:14:46.829Z,1.10
2023-03-31T11:17:32.194Z,0.80
2023-03-31T11:20:09.759Z,0.77
2023-03-31T11:23:06.280Z,1.10
2023-03-31T11:26:07.397Z,0.90
2023-03-31T11:29:17.541Z,1.05
2023-03-31T11:32:25.928Z,0.88
2023-03-31T11:35:10.151Z,1.00
2023-03-31T11:38:05.356Z,1.10
2023-03-31T11:41:12.764Z,0.90
2023-03-31T11:43:47.077Z,0.90
2023-03-31T11:46:46.969Z,1.20
2023-03-31T11:49:24.913Z,1.50
2023-03-31T11:52:05.996Z,1.17
2023-03-31T11:54:41.285Z,1.30
2023-03-31T11:57:30.979Z,1.10
2023-03-31T12:00:16.779Z,0.90
2023-03-31T12:03:14.498Z,1.08
2023-03-31T12:05:50.834Z,1.27
2023-03-31T12:08:43.614Z,1.00
2023-03-31T12:11:28.760Z,1.15
2023-03-31T12:14:01.348Z,1.40
2023-03-31T12:16:49.449Z,1.30
2023-03-31T12:19:43.470Z,1.30
2023-03-31T12:22:13.592Z,1.20
2023-03-31T12:24:41.183Z,1.20
2023-03-31T12:27:27.717Z,1.20
2023-03-31T12:30:06.261Z,1.10
2023-03-31T12:32:40.937Z,1.30
2023-03-31T12:35:37.289Z,1.17
2023-03-31T12:38:10.594Z,1.38
2023-03-31T12:41:12.703Z,1.10
2023-03-31T12:44:11.773Z,1.00
2023-03-31T12:47:11.132Z,1.27
2023-03-31T12:49:50.750Z,1.10
2023-03-31T12:52:39.570Z,1.08
2023-03-31T12:55:34.976Z,1.05
2023-03-31T12:58:24.988Z,0.90
2023-03-31T13:01:14.782Z,1.20
2023-03-31T13:04:20.196Z,1.05
2023-03-31T13:06:54.605Z,1.20
2023-03-31T13:09:31.101Z,0.90
2023-03-31T13:11:58.340Z,1.15
2023-03-31T13:14:42.415Z,1.00
2023-03-31T13:17:38.856Z,1.20
2023-03-31T13:20:36.021Z,1.20
2023-03-31T13:23:25.835Z,1.17
2023-03-31T13:25:58.901Z,1.10
2023-03-31T13:28:42.562Z,0.85
2023-03-31T13:31:13.376Z,1.20
2023-03-31T13:34:02.314Z,0.85
2023-03-31T13:36:32.560Z,0.85
2023-03-31T13:39:33.840Z,0.85
2023-03-31T13:43:06.932Z,1.10
2023-03-31T13:46:19.831Z,1.08
2023-03-31T13:49:17.961Z,1.10
2023-03-31T13:51:59.527Z,1.02
2023-03-31T13:54:30.001Z,0.98
2023-03-31T13:57:35.946Z,1.10
2023-03-31T14:00:33.479Z,0.90
2023-03-31T14:03:37.569Z,0.80
2023-03-31T14:06:27.924Z,1.05
2023-03-31T14:09:05.846Z,0.73
2023-03-31T14:11:33.716Z,0.90
2023-03-31T14:14:09.627Z,0.98
2023-03-31T14:16:41.748Z,0.80
2023-03-31T14:19:50.232Z,0.60
2023-03-31T14:22:44.672Z,0.85
2023-03-31T14:25:44.584Z,0.90
2023-03-31T14:28:18.518Z,0.65
2023-03-31T14:31:13.379Z,0.70
2023-03-31T14:34:30.998Z,0.90
2023-03-31T14:37:21.288Z,0.93
2023-03-31T14:39:56.652Z,0.90
2023-03-31T14:42:37.105Z,0.80
2023-03-31T14:45:20.555Z,0.82
2023-03-31T14:48:16.293Z,0.70
2023-03-31T14:50:46.675Z,0.90
2023-03-31T14:53:16.288Z,0.60
2023-03-31T14:55:57.862Z,0.75
2023-03-31T14:58:38.746Z,1.00
2023-03-31T15:01:10.542Z,0.93
2023-03-31T15:03:42.172Z,0.80
2023-03-31T15:06:11.275Z,0.80
2023-03-31T15:08:38.816Z,0.70
2023-03-31T15:11:14.221Z,0.60
2023-03-31T15:14:00.842Z,0.73
2023-03-31T15:16:45.588Z,0.95
2023-03-31T15:19:22.685Z,0.80
2023-03-31T15:22:14.279Z,0.85
2023-03-31T15:24:41.562Z,0.73
2023-03-31T15:27:37.860Z,0.90
2023-03-31T15:30:16.915Z,0.90
2023-03-31T15:32:45.123Z,0.98
2023-03-31T15:35:23.016Z,0.80
2023-03-31T15:37:54.146Z,0.70
2023-03-31T15:40:25.642Z,0.90
2023-03-31T15:45:44.773Z,0.88
2023-03-31T15:48:48.540Z,0.80
2023-03-31T15:51:29.981Z,0.90
2023-03-31T15:53:57.491Z,0.80
2023-03-31T15:56:44.466Z,0.73
2023-03-31T15:59:25.189Z,0.90
2023-03-31T16:01:59.726Z,0.80
2023-03-31T16:04:35.368Z,0.90
2023-03-31T16:07:09.414Z,0.90
2023-03-31T16:09:51.741Z,0.90
2023-03-31T16:12:43.466Z,0.80
2023-03-31T16:15:18.368Z,1.15
2023-03-31T16:17:56.704Z,0.90
2023-03-31T16:20:40.546Z,1.20
2023-03-31T16:23:40.623Z,1.65
2023-03-31T16:26:08.922Z,1.50
2023-03-31T16:28:38.061Z,1.45
2023-03-31T16:31:36.968Z,2.15
2023-03-31T16:34:11.186Z,1.90
2023-03-31T16:36:39.532Z,1.70
2023-03-31T16:39:07.789Z,2.20
2023-03-31T16:41:38.040Z,2.30
2023-03-31T16:44:06.323Z,2.05
2023-03-31T16:46:34.084Z,2.00
2023-03-31T16:49:01.360Z,2.00
2023-03-31T16:51:28.924Z,2.20
2023-03-31T16:53:58.850Z,2.00
2023-03-31T16:56:27.156Z,2.20
2023-03-31T16:58:55.189Z,2.15
2023-03-31T17:01:22.742Z,2.00
2023-03-31T17:03:49.998Z,2.00
2023-03-31T17:06:17.586Z,2.35
2023-03-31T17:08:44.641Z,2.38
2023-03-31T17:11:14.445Z,2.67
2023-03-31T17:13:43.654Z,2.60
2023-03-31T17:18:42.408Z,2.58
2023-03-31T17:21:13.687Z,2.63
2023-03-31T17:23:42.471Z,2.70
2023-03-31T17:26:12.543Z,2.88
2023-03-31T17:28:41.818Z,2.70
2023-03-31T17:31:19.850Z,3.25
2023-03-31T17:33:47.650Z,3.50
2023-03-31T17:36:15.694Z,3.15
2023-03-31T17:38:43.431Z,3.40
2023-03-31T17:41:13.762Z,3.25
2023-03-31T17:43:46.153Z,3.28
2023-03-31T17:46:15.389Z,3.22
2023-03-31T17:48:43.418Z,3.10
2023-03-31T17:51:15.235Z,3.33
2023-03-31T17:53:45.755Z,3.13
2023-03-31T17:56:15.956Z,3.60
2023-03-31T17:58:43.636Z,3.72
2023-03-31T18:01:12.611Z,5.13
2023-03-31T18:03:39.825Z,5.93
2023-03-31T18:06:12.355Z,5.70
2023-03-31T18:08:41.628Z,6.20
2023-03-31T18:11:10.850Z,5.85
2023-03-31T18:13:38.599Z,6.00
2023-03-31T18:16:09.867Z,6.25
2023-03-31T18:18:39.507Z,6.38
2023-03-31T18:21:11.330Z,6.63
2023-03-31T18:23:39.292Z,7.43
2023-03-31T18:26:11.870Z,7.45
2023-03-31T18:31:09.820Z,8.02
2023-03-31T18:33:38.115Z,8.35
2023-03-31T18:36:07.516Z,7.75
2023-03-31T18:38:36.848Z,7.93
2023-03-31T18:41:04.751Z,8.30
2023-03-31T18:43:33.327Z,8.73
2023-03-31T18:46:01.679Z,8.35
2023-03-31T18:48:29.353Z,9.27
2023-03-31T18:50:57.739Z,8.55
2023-03-31T18:53:25.390Z,8.25
2023-03-31T18:55:56.853Z,8.43
2023-03-31T18:58:29.990Z,7.97
2023-03-31T19:00:59.553Z,7.60
2023-03-31T19:03:27.921Z,7.25
2023-03-31T19:06:10.142Z,7.47
2023-03-31T19:08:38.266Z,7.30
2023-03-31T19:11:13.000Z,6.55
2023-03-31T19:13:42.851Z,6.65
2023-03-31T19:16:13.215Z,6.85
2023-03-31T19:18:40.974Z,6.32
2023-03-31T19:21:08.430Z,6.82
2023-03-31T19:23:35.904Z,6.50
2023-03-31T19:26:03.797Z,6.75
2023-03-31T19:28:31.539Z,6.40
2023-03-31T19:30:59.604Z,6.75
2023-03-31T19:33:27.535Z,7.43
2023-03-31T19:35:55.572Z,7.13
2023-03-31T19:38:23.296Z,8.88
2023-03-31T19:40:51.082Z,9.95
2023-03-31T19:43:24.730Z,10.05
2023-03-31T19:45:54.098Z,11.32
2023-03-31T19:48:21.613Z,11.60
2023-03-31T19:50:59.614Z,12.30
2023-03-31T19:53:31.258Z,12.98
2023-03-31T19:56:01.946Z,13.18
2023-03-31T19:58:30.830Z,12.88
2023-03-31T20:00:58.347Z,13.00
2023-03-31T20:03:27.965Z,12.32
2023-03-31T20:06:12.165Z,12.80
2023-03-31T20:08:44.228Z,11.48
2023-03-31T20:13:44.406Z,12.55
2023-03-31T20:16:21.568Z,11.95
2023-03-31T20:18:58.740Z,11.90
2023-03-31T20:21:29.019Z,11.30
2023-03-31T20:23:57.238Z,11.80
2023-03-31T20:26:32.425Z,11.23
2023-03-31T20:29:04.415Z,11.38
2023-03-31T20:31:39.092Z,10.70
2023-03-31T20:34:12.837Z,10.45
2023-03-31T20:36:43.217Z,10.80
2023-03-31T20:39:12.835Z,10.70
2023-03-31T20:41:40.201Z,9.85
2023-03-31T20:44:13.511Z,8.10
2023-03-31T20:46:43.825Z,6.90
2023-03-31T20:49:12.245Z,5.40
2023-03-31T20:51:41.244Z,5.10
2023-03-31T20:54:08.840Z,6.28
2023-03-31T20:56:40.338Z,6.28
2023-03-31T20:59:12.501Z,6.80
2023-03-31T21:01:42.193Z,6.03
2023-03-31T21:04:11.758Z,4.75
2023-03-31T21:06:43.272Z,4.20
2023-03-31T21:09:12.272Z,3.67
2023-03-31T21:11:40.697Z,3.10
2023-03-31T21:14:12.718Z,2.97
2023-03-31T21:16:40.522Z,2.90
2023-03-31T21:19:07.752Z,3.00
2023-03-31T21:21:36.198Z,2.40
2023-03-31T21:24:03.872Z,2.35
2023-03-31T21:26:31.302Z,2.38
2023-03-31T21:28:58.477Z,2.20
2023-03-31T21:31:27.160Z,2.22
2023-03-31T21:33:57.499Z,2.40
2023-03-31T21:36:26.609Z,2.38
2023-03-31T21:38:57.100Z,2.00
2023-03-31T21:41:29.878Z,2.30
2023-03-31T21:44:00.488Z,2.20
2023-03-31T21:46:32.904Z,2.13
2023-03-31T21:49:01.217Z,1.80
2023-03-31T21:51:28.945Z,2.00
2023-03-31T21:53:56.454Z,1.80
2023-03-31T21:56:28.096Z,1.90
2023-03-31T21:58:55.713Z,1.77
2023-03-31T22:01:23.597Z,1.30
2023-03-31T22:03:51.993Z,1.10
2023-03-31T22:06:20.589Z,1.00
2023-03-31T22:08:47.927Z,1.05
2023-03-31T22:11:15.893Z,0.90
2023-03-31T22:13:43.046Z,0.68
2023-03-31T22:16:18.780Z,0.82
2023-03-31T22:18:47.583Z,0.65
2023-03-31T22:21:22.860Z,0.77
2023-03-31T22:23:56.906Z,0.68
2023-03-31T22:26:27.086Z,0.70
2023-03-31T22:28:55.862Z,0.70
2023-03-31T22:31:23.394Z,0.60
2023-03-31T22:33:50.551Z,0.70
2023-03-31T22:36:18.104Z,0.50
2023-03-31T22:38:45.223Z,0.63
2023-03-31T22:41:13.047Z,0.50
2023-03-31T22:43:40.929Z,0.70
2023-03-31T22:46:09.738Z,0.70
2023-03-31T22:48:37.103Z,0.63
2023-03-31T22:51:08.707Z,0.60
2023-03-31T22:53:35.980Z,0.70
2023-03-31T22:56:07.530Z,0.90
2023-03-31T22:58:34.931Z,0.60
2023-03-31T23:01:02.986Z,0.80
2023-03-31T23:03:30.632Z,0.55
2023-03-31T23:06:02.222Z,0.70
2023-03-31T23:08:29.374Z,0.60
2023-03-31T23:10:59.608Z,0.73
2023-03-31T23:13:28.297Z,0.70
2023-03-31T23:15:56.095Z,0.70
2023-03-31T23:18:23.515Z,0.82
2023-03-31T23:20:50.978Z,0.80
2023-03-31T23:23:18.201Z,0.80
2023-03-31T23:25:45.803Z,0.88
2023-03-31T23:28:13.508Z,0.88
2023-03-31T23:30:41.206Z,0.60
2023-03-31T23:33:08.895Z,0.70
2023-03-31T23:35:36.671Z,0.88
2023-03-31T23:38:04.153Z,0.90
2023-03-31T23:40:31.792Z,0.73
2023-03-31T23:42:58.868Z,0.88
2023-03-31T23:45:26.224Z,0.70
2023-03-31T23:47:53.428Z,0.60
2023-03-31T23:50:20.986Z,0.73
2023-03-31T23:52:49.073Z,0.93
2023-03-31T23:55:16.789Z,0.90
2023-03-31T23:57:43.970Z,0.70
